createdAt,value
2019-05-30T00:00:18.125Z,2.07
2019-05-30T00:02:50.327Z,2.20
2019-05-30T00:05:22.547Z,1.77
2019-05-30T00:07:56.039Z,1.63
2019-05-30T00:10:28.101Z,1.70
2019-05-30T00:13:00.749Z,2.07
2019-05-30T00:15:32.752Z,2.50
2019-05-30T00:18:05.053Z,2.40
2019-05-30T00:20:37.023Z,2.10
2019-05-30T00:23:09.282Z,2.40
2019-05-30T00:25:41.335Z,2.17
2019-05-30T00:28:13.364Z,2.40
2019-05-30T00:30:45.335Z,1.90
2019-05-30T00:33:17.563Z,2.17
2019-05-30T00:35:49.565Z,1.97
2019-05-30T00:38:21.544Z,2.00
2019-05-30T00:40:53.816Z,2.10
2019-05-30T00:43:25.847Z,1.90
2019-05-30T00:45:57.962Z,2.23
2019-05-30T00:48:29.943Z,1.80
2019-05-30T00:51:02.658Z,2.23
2019-05-30T00:53:36.001Z,1.87
2019-05-30T00:56:08.130Z,2.17
2019-05-30T00:58:40.103Z,2.07
2019-05-30T01:01:13.009Z,2.10
2019-05-30T01:03:44.960Z,2.37
2019-05-30T01:06:17.010Z,2.00
2019-05-30T01:08:49.023Z,2.50
2019-05-30T01:11:21.039Z,2.27
2019-05-30T01:13:52.981Z,2.20
2019-05-30T01:16:25.031Z,1.87
2019-05-30T01:18:57.063Z,1.90
2019-05-30T01:21:29.126Z,1.93
2019-05-30T01:24:01.362Z,1.70
2019-05-30T01:26:33.299Z,1.90
2019-05-30T01:29:05.588Z,2.00
2019-05-30T01:31:38.179Z,2.03
2019-05-30T01:34:10.154Z,2.40
2019-05-30T01:36:42.496Z,1.83
2019-05-30T01:39:14.920Z,1.77
2019-05-30T01:41:46.965Z,1.80
2019-05-30T01:44:18.941Z,1.70
2019-05-30T01:46:51.378Z,1.53
2019-05-30T01:49:23.419Z,1.50
2019-05-30T01:51:55.383Z,2.10
2019-05-30T01:54:27.336Z,1.90
2019-05-30T01:57:00.308Z,2.03
2019-05-30T01:59:32.450Z,1.80
2019-05-30T02:02:05.189Z,2.00
2019-05-30T02:04:37.191Z,1.53
2019-05-30T02:07:09.459Z,2.23
2019-05-30T02:09:41.441Z,1.77
2019-05-30T02:12:13.421Z,2.10
2019-05-30T02:14:45.380Z,1.60
2019-05-30T02:17:17.383Z,1.77
2019-05-30T02:19:49.331Z,1.70
2019-05-30T02:22:21.397Z,1.90
2019-05-30T02:24:53.432Z,1.70
2019-05-30T02:27:25.583Z,1.90
2019-05-30T02:29:57.750Z,1.30
2019-05-30T02:32:29.976Z,1.50
2019-05-30T02:35:03.485Z,1.90
2019-05-30T02:37:35.715Z,1.73
2019-05-30T02:40:12.239Z,1.97
2019-05-30T02:42:42.338Z,1.93
2019-05-30T02:45:14.982Z,2.13
2019-05-30T02:47:46.949Z,1.80
2019-05-30T02:50:19.748Z,2.10
2019-05-30T02:52:51.751Z,1.67
2019-05-30T02:55:23.723Z,1.90
2019-05-30T02:57:55.687Z,1.70
2019-05-30T03:00:37.012Z,1.70
2019-05-30T03:03:11.516Z,1.87
2019-05-30T03:05:43.120Z,1.70
2019-05-30T03:08:15.226Z,1.67
2019-05-30T03:10:47.215Z,1.80
2019-05-30T03:13:19.501Z,1.70
2019-05-30T03:15:51.920Z,1.50
2019-05-30T03:18:23.956Z,1.53
2019-05-30T03:20:55.961Z,1.90
2019-05-30T03:23:28.610Z,1.80
2019-05-30T03:26:02.422Z,1.53
2019-05-30T03:28:34.330Z,1.80
2019-05-30T03:31:20.378Z,2.00
2019-05-30T03:33:43.232Z,1.70
2019-05-30T03:36:28.367Z,1.50
2019-05-30T03:38:49.310Z,1.70
2019-05-30T03:41:21.383Z,1.83
2019-05-30T03:43:53.348Z,1.90
2019-05-30T03:46:38.672Z,1.80
2019-05-30T03:49:18.057Z,1.90
2019-05-30T03:51:52.254Z,1.60
2019-05-30T03:54:26.348Z,1.60
2019-05-30T03:57:15.644Z,1.57
2019-05-30T03:59:58.067Z,1.40
2019-05-30T04:02:55.192Z,1.70
2019-05-30T04:05:16.051Z,1.97
2019-05-30T04:07:52.771Z,1.60
2019-05-30T04:10:29.447Z,1.70
2019-05-30T04:13:23.511Z,1.37
2019-05-30T04:15:55.548Z,1.50
2019-05-30T04:18:27.581Z,1.63
2019-05-30T04:20:59.901Z,1.63
2019-05-30T04:23:31.887Z,1.53
2019-05-30T04:26:03.986Z,1.47
2019-05-30T04:28:36.046Z,1.70
2019-05-30T04:31:08.098Z,1.70
2019-05-30T04:33:40.710Z,1.70
2019-05-30T04:36:12.728Z,1.30
2019-05-30T04:38:44.784Z,1.40
2019-05-30T04:41:19.202Z,1.70
2019-05-30T04:43:50.523Z,1.40
2019-05-30T04:46:22.619Z,1.70
2019-05-30T04:48:54.908Z,1.63
2019-05-30T04:51:26.914Z,1.50
2019-05-30T04:53:58.878Z,1.70
2019-05-30T04:56:30.822Z,1.57
2019-05-30T04:59:02.858Z,2.03
2019-05-30T05:01:34.805Z,1.80
2019-05-30T05:04:06.793Z,1.53
2019-05-30T05:06:38.813Z,1.80
2019-05-30T05:09:11.965Z,1.70
2019-05-30T05:11:44.129Z,1.57
2019-05-30T05:14:16.362Z,1.77
2019-05-30T05:16:48.517Z,1.50
2019-05-30T05:19:22.238Z,2.10
2019-05-30T05:21:54.511Z,1.80
2019-05-30T05:24:26.568Z,1.63
2019-05-30T05:26:58.633Z,1.80
2019-05-30T05:29:30.647Z,1.60
2019-05-30T05:32:02.587Z,2.03
2019-05-30T05:34:34.628Z,1.73
2019-05-30T05:37:06.617Z,1.53
2019-05-30T05:39:39.087Z,1.67
2019-05-30T05:42:11.045Z,1.70
2019-05-30T05:44:43.015Z,2.07
2019-05-30T05:47:16.298Z,1.60
2019-05-30T05:49:48.452Z,1.70
2019-05-30T05:52:20.708Z,1.60
2019-05-30T05:54:52.808Z,1.60
2019-05-30T05:57:25.065Z,1.77
2019-05-30T05:59:56.975Z,1.70
2019-05-30T06:02:28.936Z,1.73
2019-05-30T06:05:00.958Z,1.67
2019-05-30T06:07:32.924Z,1.80
2019-05-30T06:10:06.199Z,1.90
2019-05-30T06:12:38.173Z,2.10
2019-05-30T06:15:10.354Z,2.10
2019-05-30T06:17:42.301Z,2.20
2019-05-30T06:20:14.843Z,2.00
2019-05-30T06:22:46.864Z,1.73
2019-05-30T06:25:21.849Z,2.07
2019-05-30T06:27:52.741Z,2.20
2019-05-30T06:30:24.827Z,2.07
2019-05-30T06:32:56.808Z,2.30
2019-05-30T06:35:29.481Z,2.07
2019-05-30T06:38:01.921Z,2.30
2019-05-30T06:40:33.891Z,2.30
2019-05-30T06:43:06.091Z,2.50
2019-05-30T06:45:38.115Z,2.37
2019-05-30T06:48:10.085Z,2.40
2019-05-30T06:50:42.113Z,2.03
2019-05-30T06:53:14.317Z,1.90
2019-05-30T06:55:46.279Z,2.37
2019-05-30T06:58:18.262Z,2.17
2019-05-30T07:00:50.478Z,1.90
2019-05-30T07:03:22.520Z,1.87
2019-05-30T07:05:54.982Z,2.17
2019-05-30T07:08:28.801Z,1.70
2019-05-30T07:11:00.875Z,1.97
2019-05-30T07:13:33.692Z,2.00
2019-05-30T07:16:06.005Z,1.90
2019-05-30T07:18:37.971Z,1.80
2019-05-30T07:21:09.945Z,1.90
2019-05-30T07:23:42.236Z,1.80
2019-05-30T07:26:14.429Z,1.43
2019-05-30T07:28:46.704Z,1.53
2019-05-30T07:31:18.813Z,1.60
2019-05-30T07:33:51.073Z,1.67
2019-05-30T07:36:24.104Z,1.50
2019-05-30T07:38:56.087Z,1.40
2019-05-30T07:41:28.785Z,1.40
2019-05-30T07:44:00.838Z,1.70
2019-05-30T07:46:33.059Z,1.53
2019-05-30T07:49:05.341Z,1.30
2019-05-30T07:51:37.311Z,1.27
2019-05-30T07:54:09.250Z,1.70
2019-05-30T07:56:41.285Z,1.57
2019-05-30T07:59:13.587Z,1.73
2019-05-30T08:01:45.691Z,1.77
2019-05-30T08:04:17.910Z,1.47
2019-05-30T08:06:49.990Z,1.60
2019-05-30T08:09:21.997Z,1.67
2019-05-30T08:11:54.307Z,1.37
2019-05-30T08:14:26.996Z,1.43
2019-05-30T08:16:59.552Z,1.60
2019-05-30T08:19:32.720Z,1.40
2019-05-30T08:22:05.444Z,1.60
2019-05-30T08:24:38.887Z,1.80
2019-05-30T08:27:11.014Z,1.70
2019-05-30T08:29:43.004Z,1.63
2019-05-30T08:32:15.332Z,1.50
2019-05-30T08:34:47.467Z,1.87
2019-05-30T08:37:19.751Z,1.53
2019-05-30T08:39:51.999Z,1.60
2019-05-30T08:42:27.645Z,1.50
2019-05-30T08:44:57.853Z,1.80
2019-05-30T08:47:29.869Z,1.70
2019-05-30T08:50:01.931Z,1.60
2019-05-30T08:52:34.417Z,1.70
2019-05-30T08:55:08.548Z,1.87
2019-05-30T08:57:41.140Z,1.83
2019-05-30T09:00:18.493Z,1.67
2019-05-30T09:02:50.512Z,1.60
2019-05-30T09:05:22.967Z,1.90
2019-05-30T09:07:55.202Z,1.50
2019-05-30T09:10:27.233Z,1.60
2019-05-30T09:12:59.283Z,1.80
2019-05-30T09:15:31.931Z,1.50
2019-05-30T09:18:03.999Z,1.60
2019-05-30T09:20:37.943Z,1.73
2019-05-30T09:23:09.726Z,1.23
2019-05-30T09:25:41.733Z,1.67
2019-05-30T09:28:14.037Z,1.70
2019-05-30T09:30:46.523Z,1.43
2019-05-30T09:33:18.630Z,1.60
2019-05-30T09:35:52.173Z,1.60
2019-05-30T09:38:24.163Z,1.43
2019-05-30T09:40:56.427Z,1.30
2019-05-30T09:43:28.486Z,1.83
2019-05-30T09:46:00.498Z,1.87
2019-05-30T09:48:32.451Z,1.50
2019-05-30T09:51:04.503Z,1.67
2019-05-30T09:53:37.184Z,1.57
2019-05-30T09:56:09.535Z,1.53
2019-05-30T09:58:42.738Z,1.90
2019-05-30T10:01:15.111Z,1.70
2019-05-30T10:03:48.466Z,1.53
2019-05-30T10:06:29.021Z,1.50
2019-05-30T10:08:54.088Z,1.73
2019-05-30T10:11:26.308Z,1.73
2019-05-30T10:13:58.287Z,1.93
2019-05-30T10:16:30.368Z,1.83
2019-05-30T10:19:02.314Z,2.30
2019-05-30T10:21:34.611Z,2.00
2019-05-30T10:24:06.655Z,2.37
2019-05-30T10:26:38.590Z,2.00
2019-05-30T10:29:10.540Z,2.20
2019-05-30T10:31:42.683Z,1.97
2019-05-30T10:34:14.776Z,2.07
2019-05-30T10:36:48.740Z,1.60
2019-05-30T10:39:20.759Z,2.20
2019-05-30T10:41:53.136Z,1.80
2019-05-30T10:44:25.430Z,2.30
2019-05-30T10:46:57.500Z,1.70
2019-05-30T10:49:34.717Z,1.90
2019-05-30T10:52:03.295Z,2.00
2019-05-30T10:54:35.254Z,2.17
2019-05-30T10:57:07.537Z,2.10
2019-05-30T10:59:39.667Z,1.87
2019-05-30T11:02:11.613Z,1.90
2019-05-30T11:04:43.646Z,2.23
2019-05-30T11:08:01.313Z,1.67
2019-05-30T11:10:37.836Z,1.73
2019-05-30T11:13:16.542Z,1.83
2019-05-30T11:15:49.900Z,1.50
2019-05-30T11:18:23.098Z,2.07
2019-05-30T11:20:56.290Z,1.80
2019-05-30T11:23:28.475Z,1.50
2019-05-30T11:26:00.505Z,2.10
2019-05-30T11:28:32.546Z,1.90
2019-05-30T11:31:04.981Z,1.93
2019-05-30T11:33:37.206Z,1.80
2019-05-30T11:36:09.287Z,1.63
2019-05-30T11:38:41.231Z,2.10
2019-05-30T11:41:13.282Z,1.70
2019-05-30T11:43:45.253Z,2.03
2019-05-30T11:46:17.361Z,1.67
2019-05-30T11:48:49.639Z,1.80
2019-05-30T11:51:21.767Z,1.90
2019-05-30T11:53:53.868Z,1.77
2019-05-30T11:56:25.920Z,1.80
2019-05-30T11:58:58.141Z,1.90
2019-05-30T12:01:30.135Z,1.90
2019-05-30T12:04:02.155Z,1.67
2019-05-30T12:06:34.100Z,1.90
2019-05-30T12:09:08.073Z,1.90
2019-05-30T12:11:40.088Z,2.00
2019-05-30T12:14:12.134Z,1.70
2019-05-30T12:16:44.282Z,2.30
2019-05-30T12:19:16.674Z,1.80
2019-05-30T12:21:48.998Z,2.07
2019-05-30T12:24:20.949Z,1.97
2019-05-30T12:26:53.847Z,2.03
2019-05-30T12:29:26.253Z,2.03
2019-05-30T12:32:00.252Z,1.90
2019-05-30T12:34:31.969Z,1.67
2019-05-30T12:37:04.092Z,1.80
2019-05-30T12:39:36.071Z,2.03
2019-05-30T12:42:08.090Z,2.90
2019-05-30T12:44:40.047Z,2.07
2019-05-30T12:47:12.046Z,1.97
2019-05-30T12:49:44.006Z,2.00
2019-05-30T12:52:16.219Z,1.67
2019-05-30T12:54:48.570Z,2.17
2019-05-30T12:57:20.583Z,2.37
2019-05-30T12:59:52.599Z,1.90
2019-05-30T13:02:24.805Z,2.40
2019-05-30T13:04:57.030Z,2.60
2019-05-30T13:07:28.959Z,3.07
2019-05-30T13:10:01.357Z,2.10
2019-05-30T13:12:33.656Z,2.20
2019-05-30T13:15:08.157Z,2.13
2019-05-30T13:17:40.113Z,2.10
2019-05-30T13:20:14.484Z,1.87
2019-05-30T13:22:46.749Z,2.20
2019-05-30T13:25:20.984Z,2.13
2019-05-30T13:27:53.048Z,2.27
2019-05-30T13:30:26.491Z,2.20
2019-05-30T13:32:58.564Z,2.07
2019-05-30T13:35:30.776Z,2.20
2019-05-30T13:38:03.216Z,2.53
2019-05-30T13:40:35.236Z,2.27
2019-05-30T13:43:08.029Z,2.23
2019-05-30T13:45:40.175Z,2.87
2019-05-30T13:48:12.293Z,2.17
2019-05-30T13:50:45.094Z,2.20
2019-05-30T13:53:17.206Z,2.37
2019-05-30T13:55:49.351Z,2.30
2019-05-30T13:58:22.799Z,2.10
2019-05-30T14:00:54.843Z,1.70
2019-05-30T14:03:26.936Z,2.17
2019-05-30T14:05:59.932Z,1.80
2019-05-30T14:08:41.222Z,2.23
2019-05-30T14:11:06.783Z,2.17
2019-05-30T14:13:38.944Z,2.40
2019-05-30T14:16:11.139Z,2.03
2019-05-30T14:18:43.339Z,2.37
2019-05-30T14:21:15.385Z,2.63
2019-05-30T14:23:47.750Z,2.53
2019-05-30T14:26:19.915Z,2.90
2019-05-30T14:28:52.284Z,2.30
2019-05-30T14:31:24.336Z,1.97
2019-05-30T14:33:56.324Z,2.60
2019-05-30T14:36:28.409Z,2.50
2019-05-30T14:39:00.352Z,2.60
2019-05-30T14:41:32.519Z,2.60
2019-05-30T14:44:05.140Z,2.30
2019-05-30T14:46:37.157Z,2.50
2019-05-30T14:49:09.197Z,2.37
2019-05-30T14:51:41.555Z,2.40
2019-05-30T14:54:15.190Z,2.80
2019-05-30T14:56:47.272Z,2.23
2019-05-30T14:59:19.400Z,2.80
2019-05-30T15:01:51.409Z,2.53
2019-05-30T15:04:23.773Z,2.60
2019-05-30T15:06:55.818Z,2.70
2019-05-30T15:09:28.102Z,2.60
2019-05-30T15:12:00.173Z,2.90
2019-05-30T15:14:32.474Z,3.17
2019-05-30T15:17:04.450Z,3.47
2019-05-30T15:19:36.787Z,3.13
2019-05-30T15:22:09.848Z,3.27
2019-05-30T15:24:42.556Z,2.70
2019-05-30T15:27:14.704Z,4.10
2019-05-30T15:29:46.691Z,3.33
2019-05-30T15:32:18.740Z,3.00
2019-05-30T15:34:50.802Z,3.00
2019-05-30T15:37:22.798Z,2.73
2019-05-30T15:39:54.869Z,2.97
2019-05-30T15:42:26.925Z,3.07
2019-05-30T15:44:58.921Z,3.33
2019-05-30T15:47:31.241Z,2.80
2019-05-30T15:50:03.308Z,3.17
2019-05-30T15:52:35.290Z,2.83
2019-05-30T15:55:09.488Z,3.50
2019-05-30T15:57:41.685Z,3.17
2019-05-30T16:00:16.116Z,2.83
2019-05-30T16:02:48.262Z,3.20
2019-05-30T16:05:21.130Z,4.40
2019-05-30T16:07:53.433Z,3.17
2019-05-30T16:10:26.835Z,3.10
2019-05-30T16:12:58.899Z,3.10
2019-05-30T16:15:30.936Z,2.90
2019-05-30T16:18:02.889Z,3.33
2019-05-30T16:20:34.991Z,3.30
2019-05-30T16:23:06.985Z,4.13
2019-05-30T16:25:38.984Z,3.50
2019-05-30T16:28:10.919Z,3.53
2019-05-30T16:30:42.951Z,2.97
2019-05-30T16:33:15.949Z,3.63
2019-05-30T16:35:48.064Z,3.33
2019-05-30T16:38:20.182Z,3.80
2019-05-30T16:40:52.122Z,3.50
2019-05-30T16:43:24.093Z,3.30
2019-05-30T16:45:56.249Z,3.40
2019-05-30T16:48:28.369Z,3.27
2019-05-30T16:51:00.392Z,4.20
2019-05-30T16:53:33.691Z,4.13
2019-05-30T16:56:06.252Z,3.00
2019-05-30T16:58:38.507Z,7.67
2019-05-30T17:01:13.564Z,6.73
2019-05-30T17:03:45.608Z,2.90
2019-05-30T17:06:18.108Z,4.27
2019-05-30T17:08:50.135Z,3.20
2019-05-30T17:11:23.449Z,3.00
2019-05-30T17:13:55.434Z,3.10
2019-05-30T17:16:27.663Z,3.20
2019-05-30T17:18:59.698Z,5.10
2019-05-30T17:21:31.754Z,4.43
2019-05-30T17:24:03.973Z,3.43
2019-05-30T17:26:35.933Z,3.77
2019-05-30T17:29:07.961Z,3.40
2019-05-30T17:31:40.018Z,8.10
2019-05-30T17:34:12.048Z,4.83
2019-05-30T17:36:44.065Z,9.80
2019-05-30T17:39:16.055Z,5.70
2019-05-30T17:41:48.083Z,11.27
2019-05-30T17:44:21.042Z,6.37
2019-05-30T17:46:53.212Z,7.23
2019-05-30T17:49:25.862Z,4.50
2019-05-30T17:51:57.879Z,3.90
2019-05-30T17:54:30.053Z,4.40
2019-05-30T17:57:02.084Z,4.70
2019-05-30T17:59:34.063Z,4.83
2019-05-30T18:02:06.131Z,4.70
2019-05-30T18:04:38.319Z,4.60
2019-05-30T18:07:10.360Z,5.03
2019-05-30T18:09:42.420Z,5.10
2019-05-30T18:12:14.488Z,8.43
2019-05-30T18:14:46.541Z,9.67
2019-05-30T18:17:18.486Z,9.93
2019-05-30T18:19:50.473Z,9.03
2019-05-30T18:22:23.388Z,11.87
2019-05-30T18:24:55.478Z,7.10
2019-05-30T18:27:28.037Z,20.13
2019-05-30T18:30:00.110Z,5.37
2019-05-30T18:32:32.548Z,6.07
2019-05-30T18:35:06.814Z,10.40
2019-05-30T18:37:39.953Z,11.67
2019-05-30T18:40:15.078Z,5.10
2019-05-30T18:42:47.052Z,5.33
2019-05-30T18:45:24.930Z,4.70
2019-05-30T18:47:56.846Z,4.33
2019-05-30T18:50:29.368Z,4.23
2019-05-30T18:53:01.403Z,4.33
2019-05-30T18:55:33.375Z,5.00
2019-05-30T18:58:07.543Z,4.63
2019-05-30T19:00:40.048Z,4.70
2019-05-30T19:03:11.999Z,4.40
2019-05-30T19:05:44.143Z,4.60
2019-05-30T19:08:16.482Z,4.90
2019-05-30T19:10:48.922Z,4.83
2019-05-30T19:13:20.904Z,4.20
2019-05-30T19:15:52.830Z,5.20
2019-05-30T19:18:25.364Z,5.30
2019-05-30T19:20:57.548Z,5.27
2019-05-30T19:23:30.059Z,4.90
2019-05-30T19:26:02.047Z,4.53
2019-05-30T19:28:34.647Z,5.67
2019-05-30T19:31:06.898Z,4.80
2019-05-30T19:33:38.858Z,6.73
2019-05-30T19:36:10.917Z,4.40
2019-05-30T19:38:43.712Z,5.00
2019-05-30T19:41:15.778Z,4.70
2019-05-30T19:43:47.922Z,4.73
2019-05-30T19:46:19.995Z,7.70
2019-05-30T19:48:52.263Z,5.60
2019-05-30T19:51:24.857Z,6.70
2019-05-30T19:53:57.037Z,6.07
2019-05-30T19:56:29.237Z,6.17
2019-05-30T19:59:01.247Z,7.47
2019-05-30T20:01:38.062Z,6.50
2019-05-30T20:04:10.183Z,6.77
2019-05-30T20:06:42.152Z,7.17
2019-05-30T20:09:14.212Z,7.13
2019-05-30T20:12:02.206Z,7.03
2019-05-30T20:14:19.945Z,6.87
2019-05-30T20:16:51.951Z,7.63
2019-05-30T20:19:24.927Z,8.50
2019-05-30T20:21:56.892Z,9.50
2019-05-30T20:24:28.859Z,8.00
2019-05-30T20:27:00.884Z,7.47
2019-05-30T20:29:33.002Z,8.23
2019-05-30T20:32:05.551Z,8.23
2019-05-30T20:34:38.892Z,7.53
2019-05-30T20:37:10.940Z,7.77
2019-05-30T20:39:43.011Z,8.70
2019-05-30T20:42:19.245Z,8.27
2019-05-30T20:44:49.581Z,8.67
2019-05-30T20:47:21.707Z,9.20
2019-05-30T20:49:53.676Z,9.90
2019-05-30T20:52:25.708Z,9.30
2019-05-30T20:54:58.005Z,9.47
2019-05-30T20:57:30.118Z,9.93
2019-05-30T21:00:02.159Z,10.83
2019-05-30T21:02:34.657Z,10.83
2019-05-30T21:05:09.744Z,9.90
2019-05-30T21:07:44.524Z,12.13
2019-05-30T21:10:16.928Z,10.00
2019-05-30T21:12:51.529Z,10.00
2019-05-30T21:15:23.708Z,10.80
2019-05-30T21:17:59.378Z,10.27
2019-05-30T21:20:31.451Z,10.27
2019-05-30T21:23:03.414Z,11.43
2019-05-30T21:25:37.089Z,11.43
2019-05-30T21:28:09.385Z,11.60
2019-05-30T21:30:41.427Z,11.00
2019-05-30T21:33:13.692Z,11.17
2019-05-30T21:35:46.016Z,12.20
2019-05-30T21:38:18.127Z,11.03
2019-05-30T21:40:50.103Z,12.23
2019-05-30T21:43:22.067Z,11.80
2019-05-30T21:45:54.033Z,11.77
2019-05-30T21:48:26.261Z,11.80
2019-05-30T21:50:58.237Z,11.73
2019-05-30T21:53:30.210Z,11.70
2019-05-30T21:56:02.341Z,12.70
2019-05-30T21:58:34.416Z,11.90
2019-05-30T22:01:22.712Z,12.53
2019-05-30T22:03:54.669Z,12.53
2019-05-30T22:06:26.956Z,12.87
2019-05-30T22:09:03.059Z,12.60
2019-05-30T22:11:33.137Z,13.47
2019-05-30T22:14:05.843Z,13.00
2019-05-30T22:16:37.832Z,14.33
2019-05-30T22:19:09.809Z,13.33
2019-05-30T22:21:42.024Z,13.80
2019-05-30T22:24:14.126Z,13.90
2019-05-30T22:26:46.373Z,14.97
2019-05-30T22:29:18.486Z,14.10
2019-05-30T22:31:50.997Z,14.40
2019-05-30T22:34:23.072Z,14.93
2019-05-30T22:36:55.066Z,14.63
2019-05-30T22:39:27.032Z,14.97
2019-05-30T22:41:59.012Z,14.17
2019-05-30T22:44:31.029Z,13.73
2019-05-30T22:47:03.057Z,15.20
2019-05-30T22:49:35.015Z,15.50
2019-05-30T22:52:07.049Z,14.43
2019-05-30T22:54:39.016Z,15.20
2019-05-30T22:57:11.006Z,16.03
2019-05-30T22:59:43.295Z,15.17
2019-05-30T23:02:15.274Z,14.83
2019-05-30T23:04:48.085Z,14.77
2019-05-30T23:07:20.113Z,15.83
2019-05-30T23:09:52.157Z,15.90
2019-05-30T23:12:24.190Z,16.17
2019-05-30T23:14:56.347Z,15.60
2019-05-30T23:17:28.439Z,16.20
2019-05-30T23:20:00.443Z,15.43
2019-05-30T23:22:32.438Z,15.90
2019-05-30T23:25:07.715Z,15.33
2019-05-30T23:27:39.700Z,16.10
2019-05-30T23:30:12.281Z,15.97
2019-05-30T23:32:44.340Z,15.70
2019-05-30T23:35:16.488Z,16.87
2019-05-30T23:37:48.523Z,16.97
2019-05-30T23:40:21.093Z,15.83
2019-05-30T23:42:53.315Z,17.03
2019-05-30T23:45:25.301Z,17.17
2019-05-30T23:47:57.649Z,16.70
2019-05-30T23:50:29.711Z,16.93
2019-05-30T23:53:01.984Z,17.00
2019-05-30T23:55:34.028Z,16.60
2019-05-30T23:58:05.977Z,16.80
